Time;durP1;ratioP1;P1;durP2;ratioP2;P2;SDS_P1;SDS_P2;PMS_P1;PMS_P2;Temp;Humidity;BMP_temperature;BMP_pressure;BME280_temperature;BME280_humidity;BME280_pressure;Samples;Min_cycle;Max_cycle;Signal;HPM_P1;HPM_P2
2022/02/24 00:00:22;;;;;;;11.50;9.30;;;5.10;99.90;;;;;;5010514;28;20955;-74
2022/02/24 00:02:49;;;;;;;12.57;9.63;;;5.10;99.90;;;;;;5010214;28;20541;-73
2022/02/24 00:05:17;;;;;;;12.43;10.23;;;5.10;99.90;;;;;;5009875;28;21002;-74
2022/02/24 00:07:44;;;;;;;16.77;10.23;;;5.20;99.90;;;;;;5010417;28;20449;-74
2022/02/24 00:10:14;;;;;;;15.00;9.10;;;5.20;99.90;;;;;;5010243;28;20442;-74
2022/02/24 00:12:42;;;;;;;11.77;8.80;;;5.30;99.90;;;;;;5010274;28;20521;-73
2022/02/24 00:15:10;;;;;;;11.80;8.77;;;5.40;99.90;;;;;;5009853;28;20489;-74
2022/02/24 00:17:37;;;;;;;10.30;8.50;;;5.40;99.90;;;;;;5010192;28;20446;-74
2022/02/24 00:20:05;;;;;;;14.57;9.23;;;5.50;99.90;;;;;;5010042;28;20446;-73
2022/02/24 00:22:32;;;;;;;10.50;7.40;;;5.50;99.90;;;;;;5009709;28;20532;-73
2022/02/24 00:24:59;;;;;;;12.40;7.10;;;5.60;99.90;;;;;;5009579;28;20554;-74
2022/02/24 00:27:27;;;;;;;8.07;6.90;;;5.80;99.90;;;;;;5010207;28;20442;-74
2022/02/24 00:29:54;;;;;;;9.70;7.40;;;5.80;99.90;;;;;;5009984;28;20450;-74
2022/02/24 00:32:21;;;;;;;13.50;7.53;;;5.80;99.90;;;;;;5009857;28;20445;-73
2022/02/24 00:34:48;;;;;;;9.17;7.17;;;5.80;99.90;;;;;;5009616;28;20496;-74
2022/02/24 00:37:15;;;;;;;8.83;7.47;;;5.90;99.90;;;;;;5009734;28;20456;-74
2022/02/24 00:39:43;;;;;;;7.00;5.63;;;5.90;99.90;;;;;;5009644;28;20541;-74
2022/02/24 00:42:10;;;;;;;6.47;5.70;;;6.00;99.90;;;;;;5009834;28;20458;-74
2022/02/24 00:44:38;;;;;;;6.97;6.23;;;6.00;99.90;;;;;;5009310;28;21077;-74
2022/02/24 00:47:06;;;;;;;10.33;7.37;;;6.10;99.90;;;;;;5009640;28;20540;-74
2022/02/24 00:49:33;;;;;;;7.93;6.33;;;6.10;99.90;;;;;;5009903;28;20903;-74
2022/02/24 00:52:01;;;;;;;10.90;6.30;;;6.10;99.90;;;;;;5009962;28;20504;-74
2022/02/24 00:54:28;;;;;;;7.30;6.17;;;6.10;99.90;;;;;;5009408;28;20485;-74
2022/02/24 00:56:54;;;;;;;9.07;5.67;;;6.10;99.90;;;;;;5009708;28;20520;-74
2022/02/24 00:59:21;;;;;;;9.20;6.47;;;6.20;99.90;;;;;;5009723;28;20468;-74
2022/02/24 01:01:49;;;;;;;11.90;6.10;;;6.20;99.90;;;;;;5009449;28;20457;-74
2022/02/24 01:04:16;;;;;;;9.43;6.17;;;6.20;99.90;;;;;;5009562;28;20442;-74
2022/02/24 01:06:44;;;;;;;8.60;6.30;;;6.30;99.90;;;;;;5009591;28;21034;-74
2022/02/24 01:09:10;;;;;;;8.93;6.13;;;6.40;99.90;;;;;;5009885;28;20468;-74
2022/02/24 01:11:37;;;;;;;6.00;5.40;;;6.50;99.90;;;;;;5009521;28;20964;-74
2022/02/24 01:14:04;;;;;;;7.33;5.77;;;6.50;99.90;;;;;;5009155;28;20473;-74
2022/02/24 01:16:31;;;;;;;6.43;5.53;;;6.60;99.90;;;;;;5009380;28;21015;-74
2022/02/24 01:18:59;;;;;;;6.20;5.57;;;6.50;99.90;;;;;;5009670;28;20479;-74
2022/02/24 01:21:27;;;;;;;7.37;5.30;;;6.50;99.90;;;;;;5009598;28;20450;-74
2022/02/24 01:23:54;;;;;;;10.53;6.50;;;6.40;99.90;;;;;;5009515;28;20454;-74
2022/02/24 01:26:20;;;;;;;8.10;5.67;;;6.50;99.90;;;;;;5009152;28;20556;-74
2022/02/24 01:28:47;;;;;;;8.20;6.10;;;6.50;99.90;;;;;;5009436;28;21023;-74
2022/02/24 01:31:14;;;;;;;6.97;5.50;;;6.50;99.90;;;;;;5009567;28;20452;-74
2022/02/24 01:33:41;;;;;;;10.03;5.27;;;6.40;99.90;;;;;;5010245;28;20449;-74
2022/02/24 01:36:10;;;;;;;11.20;6.47;;;6.30;99.90;;;;;;5012608;28;20531;-74
2022/02/24 01:38:37;;;;;;;9.23;5.47;;;6.20;99.90;;;;;;5013098;28;20541;-74
2022/02/24 01:41:04;;;;;;;8.87;6.33;;;6.10;99.90;;;;;;5013197;28;20450;-74
2022/02/24 01:43:30;;;;;;;7.67;6.23;;;6.10;99.90;;;;;;5013091;28;20845;-74
2022/02/24 01:45:57;;;;;;;9.77;7.80;;;6.00;99.90;;;;;;5012774;28;20478;-74
2022/02/24 01:48:24;;;;;;;10.77;6.57;;;6.00;99.90;;;;;;5012999;28;20535;-74
2022/02/24 01:50:51;;;;;;;7.60;6.60;;;6.00;99.90;;;;;;5012840;28;20445;-74
2022/02/24 01:53:20;;;;;;;9.60;8.23;;;5.90;99.90;;;;;;5012598;28;20541;-74
2022/02/24 01:55:47;;;;;;;11.20;7.10;;;5.90;99.90;;;;;;5012094;28;20493;-74
2022/02/24 01:58:16;;;;;;;9.47;6.83;;;5.90;99.90;;;;;;5013268;28;20446;-74
2022/02/24 02:00:43;;;;;;;10.97;7.30;;;5.80;99.90;;;;;;5012947;28;21111;-74
2022/02/24 02:03:10;;;;;;;8.40;7.40;;;5.70;99.90;;;;;;5014980;28;20536;-74
2022/02/24 02:05:37;;;;;;;9.50;7.80;;;5.70;99.90;;;;;;5011982;28;20477;-74
2022/02/24 02:08:06;;;;;;;9.90;8.83;;;5.50;99.90;;;;;;5012128;28;20540;-74
2022/02/24 02:10:35;;;;;;;14.40;8.90;;;5.50;99.90;;;;;;5012245;28;20478;-73
2022/02/24 02:13:01;;;;;;;9.73;8.70;;;5.40;99.90;;;;;;5012326;28;20454;-74
2022/02/24 02:15:29;;;;;;;10.60;8.30;;;5.40;99.90;;;;;;5011717;28;21040;-75
2022/02/24 02:17:56;;;;;;;9.40;7.77;;;5.40;99.90;;;;;;5012125;28;20629;-74
2022/02/24 02:20:23;;;;;;;9.40;7.60;;;5.30;99.90;;;;;;5012018;28;20450;-74
2022/02/24 02:22:54;;;;;;;10.83;8.83;;;5.30;99.90;;;;;;5011981;28;20460;-74
2022/02/24 02:25:21;;;;;;;13.07;8.00;;;5.20;99.90;;;;;;5012218;28;20458;-74
2022/02/24 02:27:49;;;;;;;9.57;7.37;;;5.20;99.90;;;;;;5012135;28;20461;-74
2022/02/24 02:30:17;;;;;;;9.90;8.17;;;5.20;99.90;;;;;;5011967;28;20458;-74
2022/02/24 02:32:44;;;;;;;8.40;7.43;;;5.30;99.90;;;;;;5011815;28;20442;-74
2022/02/24 02:35:12;;;;;;;9.60;8.60;;;5.30;99.90;;;;;;5011283;28;21015;-74
2022/02/24 02:37:38;;;;;;;9.67;7.43;;;5.50;99.90;;;;;;5011628;28;20849;-73
2022/02/24 02:40:09;;;;;;;8.83;7.60;;;5.50;99.90;;;;;;5011792;28;20445;-73
2022/02/24 02:42:36;;;;;;;9.23;7.80;;;5.50;99.90;;;;;;5011543;28;20454;-74
2022/02/24 02:45:04;;;;;;;9.90;7.17;;;5.60;99.90;;;;;;5010720;28;20476;-74
2022/02/24 02:47:31;;;;;;;9.03;7.60;;;5.60;99.90;;;;;;5011636;28;20446;-74
2022/02/24 02:49:57;;;;;;;13.63;8.90;;;5.60;99.90;;;;;;5011381;28;20849;-74
2022/02/24 02:52:24;;;;;;;8.20;7.23;;;5.60;99.90;;;;;;5011511;28;20962;-74
2022/02/24 02:54:58;;;;;;;8.60;7.30;;;5.70;99.90;;;;;;5010973;28;20966;-75
2022/02/24 02:57:26;;;;;;;10.77;7.17;;;5.70;99.90;;;;;;5011380;28;20445;-74
2022/02/24 02:59:53;;;;;;;7.93;6.40;;;5.70;99.90;;;;;;5011385;28;20454;-74
2022/02/24 03:02:19;;;;;;;7.70;6.90;;;5.80;99.90;;;;;;5011193;28;20528;-74
2022/02/24 03:04:49;;;;;;;8.17;6.60;;;5.80;99.90;;;;;;5010746;28;20452;-75
2022/02/24 03:07:17;;;;;;;9.53;7.17;;;5.90;99.90;;;;;;5010955;28;20498;-75
2022/02/24 03:09:44;;;;;;;7.67;6.07;;;5.90;99.90;;;;;;5011444;28;20457;-74
2022/02/24 03:12:11;;;;;;;8.40;6.47;;;6.00;99.90;;;;;;5011142;28;20461;-74
2022/02/24 03:14:39;;;;;;;8.07;6.40;;;6.00;99.90;;;;;;5010904;28;20449;-73
2022/02/24 03:17:06;;;;;;;7.10;6.10;;;6.00;99.90;;;;;;5010831;28;20438;-74
2022/02/24 03:19:33;;;;;;;8.47;5.90;;;6.00;99.90;;;;;;5011078;28;20947;-75
2022/02/24 03:22:00;;;;;;;6.53;5.50;;;6.00;99.90;;;;;;5010958;28;20445;-74
2022/02/24 03:24:27;;;;;;;8.03;6.27;;;6.00;99.90;;;;;;5010573;28;21296;-74
2022/02/24 03:26:54;;;;;;;8.40;6.40;;;6.10;99.90;;;;;;5010837;28;20487;-73
2022/02/24 03:29:21;;;;;;;8.67;6.43;;;6.10;99.90;;;;;;5011158;28;20438;-74
2022/02/24 03:31:49;;;;;;;7.60;6.13;;;6.20;99.90;;;;;;5011232;28;20442;-74
2022/02/24 03:34:16;;;;;;;8.67;5.50;;;6.20;99.90;;;;;;5010822;28;20529;-74
2022/02/24 03:36:43;;;;;;;7.73;6.70;;;6.10;99.90;;;;;;5010640;28;20489;-74
2022/02/24 03:39:10;;;;;;;7.83;6.57;;;6.20;99.90;;;;;;5010577;28;20982;-74
2022/02/24 03:41:36;;;;;;;8.30;6.20;;;6.20;99.90;;;;;;5010743;28;21034;-74
2022/02/24 03:44:04;;;;;;;8.80;6.03;;;6.20;99.90;;;;;;5010301;28;20545;-72
2022/02/24 03:46:31;;;;;;;7.30;5.77;;;6.20;99.90;;;;;;5010637;28;20859;-74
2022/02/24 03:48:59;;;;;;;8.87;6.03;;;6.20;99.90;;;;;;5010543;28;20458;-74
2022/02/24 03:51:25;;;;;;;11.60;7.33;;;6.20;99.90;;;;;;5010568;28;20452;-74
2022/02/24 03:53:52;;;;;;;8.10;6.93;;;6.20;99.90;;;;;;5010609;28;20441;-74
2022/02/24 03:56:19;;;;;;;13.00;7.13;;;6.20;99.90;;;;;;5009359;28;20496;-73
2022/02/24 03:58:46;;;;;;;9.50;7.00;;;6.20;99.90;;;;;;5010106;28;20446;-75
2022/02/24 04:01:14;;;;;;;10.90;8.07;;;6.20;99.90;;;;;;5010267;28;20878;-74
2022/02/24 04:03:41;;;;;;;8.00;7.20;;;6.20;99.90;;;;;;5010398;28;20898;-74
2022/02/24 04:06:09;;;;;;;10.27;7.23;;;6.20;99.90;;;;;;5009683;28;20480;-74
2022/02/24 04:08:36;;;;;;;8.47;7.57;;;6.20;99.90;;;;;;5010317;28;20450;-74
2022/02/24 04:11:02;;;;;;;9.37;7.37;;;6.10;99.90;;;;;;5010296;28;20975;-74
2022/02/24 04:13:29;;;;;;;8.07;6.80;;;6.10;99.90;;;;;;5010093;28;20541;-74
2022/02/24 04:15:56;;;;;;;8.80;6.23;;;6.00;99.90;;;;;;5009633;28;20482;-74
2022/02/24 04:18:23;;;;;;;8.80;6.50;;;6.00;99.90;;;;;;5010097;28;20545;-74
2022/02/24 04:20:50;;;;;;;10.33;7.67;;;6.00;99.90;;;;;;5010090;28;20454;-74
2022/02/24 04:23:18;;;;;;;11.70;8.87;;;5.90;99.90;;;;;;5010090;28;20453;-75
2022/02/24 04:25:45;;;;;;;10.10;8.43;;;5.90;99.90;;;;;;5009446;28;20465;-74
2022/02/24 04:28:12;;;;;;;14.00;8.70;;;5.90;99.90;;;;;;5010199;28;20511;-74
2022/02/24 04:30:39;;;;;;;13.73;9.30;;;5.90;99.90;;;;;;5010000;28;20449;-74
2022/02/24 04:33:06;;;;;;;11.23;8.67;;;5.90;99.90;;;;;;5009977;28;20533;-74
2022/02/24 04:35:33;;;;;;;11.63;8.80;;;5.80;99.90;;;;;;5009593;28;20572;-74
2022/02/24 04:37:59;;;;;;;12.97;8.60;;;5.80;99.90;;;;;;5009985;28;20817;-74
2022/02/24 04:40:28;;;;;;;13.23;8.30;;;5.80;99.90;;;;;;5009849;28;20438;-74
2022/02/24 04:42:55;;;;;;;11.67;8.97;;;5.70;99.90;;;;;;5009929;28;20452;-74
2022/02/24 04:45:22;;;;;;;12.03;8.60;;;5.60;99.90;;;;;;5009605;28;20474;-74
2022/02/24 04:47:49;;;;;;;15.37;9.97;;;5.50;99.90;;;;;;5009694;28;20963;-74
2022/02/24 04:50:16;;;;;;;14.37;8.67;;;5.50;99.90;;;;;;5009963;28;20474;-74
2022/02/24 04:52:43;;;;;;;11.63;9.23;;;5.50;99.90;;;;;;5009786;28;20495;-74
2022/02/24 04:55:10;;;;;;;10.87;8.20;;;5.50;99.90;;;;;;5009296;28;20473;-74
2022/02/24 04:57:39;;;;;;;10.37;8.23;;;5.40;99.90;;;;;;5009795;28;20442;-74
2022/02/24 05:00:07;;;;;;;10.00;8.33;;;5.40;99.90;;;;;;5009807;28;20533;-73
2022/02/24 05:02:34;;;;;;;11.10;8.70;;;5.40;99.90;;;;;;5009710;28;20492;-74
2022/02/24 05:05:01;;;;;;;14.33;9.70;;;5.30;99.90;;;;;;5009548;28;20544;-73
2022/02/24 05:07:28;;;;;;;11.53;9.70;;;5.30;99.90;;;;;;5009771;28;20500;-74
2022/02/24 05:09:55;;;;;;;9.20;6.60;;;5.30;99.90;;;;;;5013485;28;20488;-74
2022/02/24 05:12:21;;;;;;;13.93;8.00;;;5.40;99.90;;;;;;5013327;28;20931;-74
2022/02/24 05:14:50;;;;;;;11.93;7.27;;;5.30;99.90;;;;;;5013111;28;20446;-74
2022/02/24 05:17:16;;;;;;;7.13;5.57;;;5.20;99.90;;;;;;5013489;28;20488;-74
2022/02/24 05:19:43;;;;;;;12.33;7.90;;;5.20;99.90;;;;;;5013472;28;20468;-74
2022/02/24 05:22:10;;;;;;;8.10;6.20;;;5.20;99.90;;;;;;5013354;28;20457;-74
2022/02/24 05:24:37;;;;;;;9.20;6.70;;;5.10;99.90;;;;;;5013060;28;20453;-73
2022/02/24 05:27:04;;;;;;;8.03;6.93;;;5.10;99.90;;;;;;5013469;28;20445;-74
2022/02/24 05:29:31;;;;;;;8.47;5.90;;;5.00;99.90;;;;;;5013051;28;20974;-74
2022/02/24 05:31:59;;;;;;;7.03;5.23;;;5.10;99.90;;;;;;5013644;28;20450;-76
2022/02/24 05:34:26;;;;;;;8.03;5.10;;;5.20;99.90;;;;;;5014145;28;20449;-76
2022/02/24 05:36:53;;;;;;;7.30;6.13;;;5.10;99.90;;;;;;5014962;28;20497;-77
2022/02/24 05:39:20;;;;;;;11.00;6.10;;;5.10;99.90;;;;;;5014743;28;20446;-76
2022/02/24 05:41:46;;;;;;;7.57;6.10;;;5.00;99.90;;;;;;5013081;28;20452;-76
2022/02/24 05:44:13;;;;;;;11.70;6.87;;;5.00;99.90;;;;;;5012710;28;20454;-74
2022/02/24 05:46:40;;;;;;;11.87;7.13;;;5.00;99.90;;;;;;5012515;28;20994;-74
2022/02/24 05:49:08;;;;;;;9.30;7.07;;;5.00;99.90;;;;;;5012581;28;20449;-74
2022/02/24 05:51:35;;;;;;;10.80;6.70;;;5.00;99.90;;;;;;5012701;28;20445;-73
2022/02/24 05:54:01;;;;;;;10.10;7.00;;;4.90;99.90;;;;;;5012474;28;20449;-76
2022/02/24 05:56:28;;;;;;;9.50;8.03;;;4.90;99.90;;;;;;5012222;28;20488;-74
2022/02/24 05:58:55;;;;;;;8.40;7.60;;;4.90;99.90;;;;;;5012525;28;20485;-73
2022/02/24 06:01:22;;;;;;;7.57;6.80;;;4.90;99.90;;;;;;5012224;28;20450;-75
2022/02/24 06:03:49;;;;;;;9.00;7.10;;;4.90;99.90;;;;;;5012327;28;20981;-77
2022/02/24 06:06:17;;;;;;;10.60;8.20;;;5.00;99.90;;;;;;5011622;28;20568;-74
2022/02/24 06:08:44;;;;;;;10.70;7.27;;;5.00;99.90;;;;;;5011044;28;20464;-75
2022/02/24 06:11:11;;;;;;;9.87;7.27;;;5.00;99.90;;;;;;4996521;28;20461;-74
2022/02/24 06:13:37;;;;;;;9.90;7.33;;;5.00;99.90;;;;;;4998370;28;20451;-73
2022/02/24 06:16:05;;;;;;;10.30;8.53;;;5.10;99.90;;;;;;5018688;28;20572;-74
2022/02/24 06:18:32;;;;;;;7.50;5.87;;;5.10;99.90;;;;;;5009741;28;20441;-74
2022/02/24 06:20:58;;;;;;;9.27;6.90;;;5.20;99.90;;;;;;5009378;28;21034;-75
2022/02/24 06:23:27;;;;;;;9.20;7.43;;;5.10;99.90;;;;;;5010725;28;20999;-75
2022/02/24 06:25:54;;;;;;;11.30;7.50;;;5.20;99.90;;;;;;5010583;28;21015;-76
2022/02/24 06:28:21;;;;;;;9.63;8.13;;;5.20;99.90;;;;;;5010795;28;20529;-74
2022/02/24 06:30:48;;;;;;;12.90;7.80;;;5.20;99.90;;;;;;5011425;28;20540;-75
2022/02/24 06:33:14;;;;;;;9.27;7.40;;;5.30;99.90;;;;;;5012184;28;20450;-75
2022/02/24 06:35:41;;;;;;;9.37;6.90;;;5.30;99.90;;;;;;5011650;28;20811;-75
2022/02/24 06:38:08;;;;;;;10.77;7.27;;;5.40;99.90;;;;;;5011881;28;20489;-75
2022/02/24 06:40:36;;;;;;;10.37;8.00;;;5.40;99.90;;;;;;5011791;28;20457;-75
2022/02/24 06:43:03;;;;;;;9.60;8.33;;;5.40;99.90;;;;;;5011635;28;20458;-75
2022/02/24 06:45:30;;;;;;;9.17;7.47;;;5.40;99.90;;;;;;5011395;28;20469;-73
2022/02/24 06:47:57;;;;;;;11.40;6.60;;;5.50;99.90;;;;;;5011764;28;20450;-74
2022/02/24 06:50:24;;;;;;;8.83;6.87;;;5.50;99.90;;;;;;5011547;28;20453;-75
2022/02/24 06:52:50;;;;;;;8.03;6.63;;;5.50;99.90;;;;;;5012031;28;20450;-75
2022/02/24 06:55:17;;;;;;;8.50;6.87;;;5.50;99.90;;;;;;5011493;28;20470;-75
2022/02/24 06:57:47;;;;;;;8.23;6.53;;;5.60;99.90;;;;;;5011408;28;20484;-76
2022/02/24 07:00:16;;;;;;;10.90;7.20;;;5.60;99.90;;;;;;5005762;28;20460;-74
2022/02/24 07:02:43;;;;;;;7.40;5.40;;;5.70;99.90;;;;;;4999228;28;20449;-73
2022/02/24 07:05:10;;;;;;;10.67;7.30;;;5.80;99.90;;;;;;5004426;28;20471;-74
2022/02/24 07:07:38;;;;;;;10.70;7.50;;;5.80;99.90;;;;;;4991337;28;20542;-74
2022/02/24 07:10:08;;;;;;;7.73;6.63;;;5.80;99.90;;;;;;4990985;28;20470;-74
2022/02/24 07:12:35;;;;;;;10.77;7.40;;;5.80;99.90;;;;;;4990535;28;20455;-74
2022/02/24 07:15:04;;;;;;;10.60;7.20;;;5.90;99.90;;;;;;4990628;28;20470;-74
2022/02/24 07:17:31;;;;;;;7.67;6.60;;;5.80;99.90;;;;;;4990833;28;20561;-74
2022/02/24 07:19:59;;;;;;;9.90;6.87;;;5.80;99.90;;;;;;4990613;28;20465;-73
2022/02/24 07:22:25;;;;;;;9.67;7.07;;;5.90;99.90;;;;;;4990304;28;20451;-74
2022/02/24 07:24:53;;;;;;;9.63;8.63;;;5.90;99.90;;;;;;4989989;28;20442;-73
2022/02/24 07:27:20;;;;;;;8.13;6.93;;;5.90;99.90;;;;;;4990699;28;20461;-74
2022/02/24 07:29:47;;;;;;;11.97;9.00;;;5.90;99.90;;;;;;4990487;28;20533;-75
2022/02/24 07:32:15;;;;;;;10.40;7.67;;;5.90;99.90;;;;;;4990076;28;20451;-75
2022/02/24 07:34:42;;;;;;;11.73;7.30;;;6.00;99.90;;;;;;4989930;28;20461;-74
2022/02/24 07:37:09;;;;;;;10.40;8.10;;;6.10;99.90;;;;;;4990261;28;20525;-73
2022/02/24 07:39:36;;;;;;;9.90;8.07;;;6.10;99.90;;;;;;4989999;28;20447;-73
2022/02/24 07:42:03;;;;;;;8.00;6.80;;;6.10;99.90;;;;;;4990348;28;20458;-73
2022/02/24 07:44:30;;;;;;;9.00;7.17;;;6.10;99.90;;;;;;4990048;28;20899;-73
2022/02/24 07:46:57;;;;;;;10.33;6.90;;;6.20;99.90;;;;;;4990163;28;20819;-73
2022/02/24 07:49:26;;;;;;;11.70;6.77;;;6.30;99.90;;;;;;4996044;28;20540;-74
2022/02/24 07:51:53;;;;;;;8.53;6.33;;;6.40;99.90;;;;;;5012305;28;20493;-75
2022/02/24 07:54:20;;;;;;;10.20;7.07;;;6.40;99.90;;;;;;5009137;28;20452;-74
2022/02/24 07:56:47;;;;;;;9.87;7.33;;;6.50;99.90;;;;;;5009566;28;20496;-74
2022/02/24 07:59:14;;;;;;;9.50;6.43;;;6.50;99.90;;;;;;5009098;28;21034;-74
2022/02/24 08:01:41;;;;;;;11.20;7.60;;;6.50;99.90;;;;;;5009209;28;20445;-75
2022/02/24 08:04:08;;;;;;;12.30;7.63;;;6.50;99.90;;;;;;5009193;28;20445;-74
2022/02/24 08:06:36;;;;;;;10.53;7.80;;;6.50;99.90;;;;;;5009058;28;20492;-75
2022/02/24 08:09:05;;;;;;;12.47;7.43;;;6.50;99.90;;;;;;5009502;28;20540;-75
2022/02/24 08:11:32;;;;;;;8.10;6.90;;;6.60;99.90;;;;;;5009295;28;20508;-75
2022/02/24 08:13:59;;;;;;;8.80;7.27;;;6.70;99.90;;;;;;5009154;28;20446;-74
2022/02/24 08:16:27;;;;;;;8.13;6.57;;;6.80;99.90;;;;;;5008835;28;20472;-74
2022/02/24 08:18:55;;;;;;;8.57;7.67;;;6.80;99.90;;;;;;5009264;28;20462;-74
2022/02/24 08:21:22;;;;;;;8.73;6.87;;;6.90;99.90;;;;;;5008857;28;21165;-74
2022/02/24 08:23:50;;;;;;;10.23;7.20;;;6.90;99.90;;;;;;5009349;28;20445;-74
2022/02/24 08:26:17;;;;;;;10.70;6.70;;;6.90;99.90;;;;;;5008305;28;20469;-75
2022/02/24 08:28:44;;;;;;;8.00;6.53;;;7.00;99.90;;;;;;5009099;28;20966;-75
2022/02/24 08:31:11;;;;;;;9.80;6.87;;;7.00;99.90;;;;;;5009019;28;21327;-75
2022/02/24 08:33:38;;;;;;;10.30;7.43;;;7.00;99.90;;;;;;5008824;28;20494;-75
2022/02/24 08:36:05;;;;;;;10.60;7.13;;;7.10;99.90;;;;;;5008866;28;20476;-74
2022/02/24 08:38:32;;;;;;;8.43;6.47;;;7.20;99.90;;;;;;5008769;28;20492;-75
2022/02/24 08:41:00;;;;;;;6.70;6.00;;;7.20;99.90;;;;;;5009926;28;20900;-75
2022/02/24 08:43:27;;;;;;;8.00;6.80;;;7.30;99.90;;;;;;5010955;28;20453;-76
2022/02/24 08:45:54;;;;;;;8.30;6.20;;;7.30;99.90;;;;;;5013396;28;20935;-77
2022/02/24 08:48:21;;;;;;;9.53;6.30;;;7.30;99.90;;;;;;5013116;28;20473;-76
2022/02/24 08:50:47;;;;;;;7.83;6.70;;;7.40;99.90;;;;;;5013257;28;20484;-76
2022/02/24 08:53:15;;;;;;;8.53;5.67;;;7.40;99.90;;;;;;5013106;28;20879;-75
2022/02/24 08:55:42;;;;;;;7.00;6.30;;;7.50;99.90;;;;;;5012584;28;20468;-75
2022/02/24 08:58:10;;;;;;;10.07;6.33;;;7.60;99.90;;;;;;5012854;28;20487;-76
2022/02/24 09:00:42;;;;;;;8.13;5.93;;;7.70;99.90;;;;;;5012967;28;20460;-75
2022/02/24 09:03:09;;;;;;;7.57;6.50;;;7.70;99.90;;;;;;5012974;28;20552;-76
2022/02/24 09:05:36;;;;;;;8.23;5.70;;;7.70;99.90;;;;;;5012453;28;20513;-75
2022/02/24 09:08:03;;;;;;;8.63;5.17;;;7.80;99.90;;;;;;5012808;28;20536;-74
2022/02/24 09:10:31;;;;;;;8.27;6.40;;;7.80;99.90;;;;;;5013010;28;20524;-75
2022/02/24 09:12:58;;;;;;;7.43;6.10;;;7.80;99.90;;;;;;5012879;28;20540;-75
2022/02/24 09:15:26;;;;;;;7.30;6.10;;;7.80;99.90;;;;;;5012120;28;20851;-75
2022/02/24 09:17:53;;;;;;;6.37;5.70;;;7.90;99.90;;;;;;5012665;28;20488;-74
2022/02/24 09:20:20;;;;;;;9.20;6.73;;;8.20;99.90;;;;;;5012488;28;20508;-76
2022/02/24 09:22:47;;;;;;;7.47;5.50;;;8.30;99.90;;;;;;5012235;28;20456;-76
2022/02/24 09:25:14;;;;;;;6.20;5.40;;;8.40;99.90;;;;;;5012078;28;21018;-75
2022/02/24 09:27:41;;;;;;;6.90;4.83;;;8.50;99.90;;;;;;5012878;28;20453;-75
2022/02/24 09:30:08;;;;;;;8.23;4.87;;;8.50;99.90;;;;;;5012954;28;20528;-75
2022/02/24 09:32:37;;;;;;;6.10;4.80;;;8.60;99.90;;;;;;5013154;28;20480;-76
2022/02/24 09:35:05;;;;;;;7.00;5.40;;;8.80;99.90;;;;;;5012666;28;20473;-76
2022/02/24 09:37:34;;;;;;;7.03;4.73;;;8.90;99.90;;;;;;5012927;28;20482;-76
2022/02/24 09:40:01;;;;;;;6.23;4.43;;;9.00;99.90;;;;;;5012860;28;20446;-76
2022/02/24 09:42:28;;;;;;;5.37;4.40;;;9.00;99.90;;;;;;5012646;28;20512;-75
2022/02/24 09:44:55;;;;;;;5.50;4.63;;;8.90;99.90;;;;;;5012490;28;20453;-76
2022/02/24 09:47:22;;;;;;;5.30;4.47;;;8.80;99.90;;;;;;5012911;28;20446;-76
2022/02/24 09:49:53;;;;;;;8.97;5.13;;;8.80;99.90;;;;;;5012761;28;20445;-75
2022/02/24 09:52:20;;;;;;;5.47;4.77;;;8.90;99.90;;;;;;5012598;28;20995;-75
2022/02/24 09:54:47;;;;;;;9.03;4.83;;;9.10;99.90;;;;;;5010861;28;20940;-76
2022/02/24 09:57:14;;;;;;;4.33;3.80;;;9.20;99.90;;;;;;5012603;28;20477;-76
2022/02/24 09:59:41;;;;;;;7.27;4.80;;;9.30;99.90;;;;;;5012612;28;21033;-75
2022/02/24 10:02:12;;;;;;;7.70;4.30;;;9.40;99.90;;;;;;5012713;28;20457;-76
2022/02/24 10:04:39;;;;;;;6.83;4.53;;;9.60;99.90;;;;;;5011990;28;20979;-76
2022/02/24 10:07:24;;;;;;;6.33;4.00;;;9.70;99.90;;;;;;5012577;28;20488;-76
2022/02/24 10:09:51;;;;;;;8.73;4.00;;;9.90;99.90;;;;;;5012280;28;20951;-75
2022/02/24 10:12:18;;;;;;;6.43;4.10;;;10.00;99.90;;;;;;5012353;28;20489;-75
2022/02/24 10:14:45;;;;;;;6.97;4.17;;;10.10;99.90;;;;;;5011937;28;20876;-76
2022/02/24 10:17:16;;;;;;;8.07;5.67;;;10.20;99.90;;;;;;5012124;28;20452;-75
2022/02/24 10:19:45;;;;;;;6.80;4.07;;;10.30;99.90;;;;;;5012053;28;20461;-75
2022/02/24 10:22:18;;;;;;;7.13;4.60;;;10.30;99.90;;;;;;5012006;28;20453;-75
2022/02/24 10:24:46;;;;;;;4.50;3.23;;;10.20;99.90;;;;;;5012003;28;20450;-75
2022/02/24 10:27:20;;;;;;;7.60;4.30;;;10.30;99.90;;;;;;5012066;28;21019;-75
2022/02/24 10:30:05;;;;;;;4.03;3.63;;;10.40;99.90;;;;;;5011996;28;20448;-74
2022/02/24 10:32:34;;;;;;;4.50;3.07;;;10.40;99.90;;;;;;5011793;28;20533;-74
2022/02/24 10:35:24;;;;;;;7.80;2.87;;;10.40;99.90;;;;;;5011463;28;20509;-74
2022/02/24 10:37:54;;;;;;;4.30;2.00;;;10.60;99.90;;;;;;5012236;28;20926;-75
2022/02/24 10:40:23;;;;;;;5.23;2.67;;;10.70;99.90;;;;;;5011974;28;20446;-75
2022/02/24 10:42:51;;;;;;;8.43;1.97;;;10.80;99.90;;;;;;5012041;28;20450;-75
2022/02/24 10:45:18;;;;;;;3.50;1.60;;;10.80;99.90;;;;;;5011842;28;20464;-75
2022/02/24 10:47:59;;;;;;;4.47;1.73;;;10.90;99.90;;;;;;5012072;28;20912;-75
2022/02/24 10:50:51;;;;;;;3.13;1.90;;;11.10;99.90;;;;;;5011864;28;20450;-75
2022/02/24 10:53:21;;;;;;;3.70;1.67;;;11.10;99.90;;;;;;5011601;28;20476;-75
2022/02/24 10:56:12;;;;;;;3.70;2.20;;;11.10;99.90;;;;;;5011215;28;20541;-74
2022/02/24 10:58:42;;;;;;;3.20;1.57;;;11.30;99.90;;;;;;4991869;28;20488;-75
2022/02/24 11:01:15;;;;;;;3.03;1.57;;;11.50;99.90;;;;;;5011239;28;20549;-75
2022/02/24 11:03:44;;;;;;;2.80;1.60;;;11.70;99.90;;;;;;5011292;28;20446;-76
2022/02/24 11:06:12;;;;;;;3.17;2.00;;;11.90;99.90;;;;;;5010736;28;20480;-75
2022/02/24 11:08:41;;;;;;;6.10;1.80;;;12.10;99.90;;;;;;5011416;28;20453;-75
2022/02/24 11:11:09;;;;;;;4.30;2.10;;;12.30;99.90;;;;;;5011136;28;20454;-75
2022/02/24 11:13:36;;;;;;;18.80;3.33;;;12.40;99.90;;;;;;5011072;28;20540;-74
2022/02/24 11:16:04;;;;;;;8.97;2.47;;;12.60;99.90;;;;;;5010818;28;20540;-76
2022/02/24 11:18:31;;;;;;;5.83;1.70;;;12.70;99.90;;;;;;5010961;28;20584;-76
2022/02/24 11:20:58;;;;;;;13.43;2.67;;;12.90;99.90;;;;;;5010990;28;20458;-75
2022/02/24 11:23:26;;;;;;;3.13;1.70;;;13.00;99.90;;;;;;5011034;28;20468;-76
2022/02/24 11:26:03;;;;;;;4.03;2.17;;;13.00;99.90;;;;;;5010631;28;20480;-75
2022/02/24 11:28:37;;;;;;;5.33;1.93;;;13.00;99.90;;;;;;5010831;28;20453;-76
2022/02/24 11:31:16;;;;;;;3.80;2.20;;;13.20;99.90;;;;;;5010833;28;20549;-75
2022/02/24 11:33:43;;;;;;;4.67;1.87;;;13.20;99.90;;;;;;5010759;28;20454;-75
2022/02/24 11:36:14;;;;;;;4.57;2.43;;;13.30;99.90;;;;;;5010461;28;20493;-75
2022/02/24 11:38:41;;;;;;;5.23;1.77;;;13.40;99.90;;;;;;5010525;28;20477;-75
2022/02/24 11:41:10;;;;;;;3.30;1.73;;;13.40;99.90;;;;;;5010492;28;20545;-76
2022/02/24 11:43:43;;;;;;;2.70;1.57;;;13.30;99.90;;;;;;5010559;28;20453;-76
2022/02/24 11:46:11;;;;;;;3.37;1.67;;;13.30;99.90;;;;;;5010393;28;20477;-75
2022/02/24 11:48:43;;;;;;;3.40;1.50;;;13.20;99.90;;;;;;5010355;28;20552;-75
2022/02/24 11:51:16;;;;;;;5.00;1.87;;;13.30;99.90;;;;;;5010567;28;20534;-75
2022/02/24 11:53:45;;;;;;;4.83;2.20;;;13.40;99.90;;;;;;5010336;28;20456;-75
2022/02/24 11:56:19;;;;;;;5.00;1.57;;;13.50;99.90;;;;;;5010143;28;20465;-75
2022/02/24 11:58:56;;;;;;;2.67;1.70;;;13.50;99.90;;;;;;5010181;28;21022;-75
2022/02/24 12:01:34;;;;;;;4.40;1.73;;;13.30;99.90;;;;;;5010374;28;20549;-74
2022/02/24 12:04:15;;;;;;;4.60;2.13;;;13.30;99.90;;;;;;5010247;28;20500;-76
2022/02/24 12:06:58;;;;;;;3.10;1.40;;;13.30;99.90;;;;;;5010314;28;20478;-75
2022/02/24 12:09:31;;;;;;;5.00;1.70;;;13.20;99.90;;;;;;5007902;28;20557;-75
2022/02/24 12:12:01;;;;;;;3.57;1.30;;;13.20;99.90;;;;;;5010277;28;20454;-75
2022/02/24 12:14:53;;;;;;;6.60;1.80;;;13.30;99.90;;;;;;5009925;28;20445;-75
2022/02/24 12:17:23;;;;;;;3.73;1.80;;;13.30;99.90;;;;;;5009444;28;20456;-75
2022/02/24 12:19:53;;;;;;;4.70;1.83;;;13.30;99.90;;;;;;5010412;28;20525;-75
2022/02/24 12:22:35;;;;;;;2.93;1.50;;;13.30;99.90;;;;;;5009952;28;20450;-75
2022/02/24 12:25:21;;;;;;;4.63;1.90;;;13.40;99.90;;;;;;5009729;28;20830;-75
2022/02/24 12:28:00;;;;;;;3.00;1.87;;;13.40;99.90;;;;;;5010223;28;20944;-75
2022/02/24 12:30:32;;;;;;;3.60;1.83;;;13.40;99.90;;;;;;5009799;28;20445;-75
2022/02/24 12:33:09;;;;;;;3.07;1.70;;;13.40;99.90;;;;;;5010196;28;20453;-75
2022/02/24 12:35:38;;;;;;;3.80;1.30;;;13.40;99.90;;;;;;5010057;28;20457;-75
2022/02/24 12:38:06;;;;;;;3.37;1.40;;;13.50;99.90;;;;;;5009557;28;21025;-75
2022/02/24 12:40:35;;;;;;;3.90;1.67;;;13.50;99.90;;;;;;5001019;28;20831;-74
2022/02/24 12:43:05;;;;;;;3.90;1.43;;;13.50;99.90;;;;;;4998921;28;20446;-74
2022/02/24 12:45:33;;;;;;;3.80;1.60;;;13.60;99.90;;;;;;4990717;28;20908;-74
2022/02/24 12:48:02;;;;;;;3.20;1.30;;;13.60;99.90;;;;;;4991436;28;20465;-74
2022/02/24 12:50:33;;;;;;;4.27;1.77;;;13.50;99.90;;;;;;5009635;28;20477;-75
2022/02/24 12:53:08;;;;;;;3.63;1.60;;;13.40;99.90;;;;;;4991121;28;20482;-75
2022/02/24 12:55:35;;;;;;;4.00;1.63;;;13.30;99.90;;;;;;4989863;28;20494;-75
2022/02/24 12:58:05;;;;;;;2.70;1.50;;;13.40;99.90;;;;;;4989979;28;20465;-75